sensor_id;sensor_type;location;lat;lon;timestamp;temperature;humidity
16627;DHT22;8427;52.204;7.202;2024-01-11T00:01:21;-3270.40;83.20
16627;DHT22;8427;52.204;7.202;2024-01-11T00:03:49;-3270.50;83.00
16627;DHT22;8427;52.204;7.202;2024-01-11T00:06:19;-3270.40;82.90
16627;DHT22;8427;52.204;7.202;2024-01-11T00:08:48;-3270.50;82.90
16627;DHT22;8427;52.204;7.202;2024-01-11T00:11:16;-3270.40;83.00
16627;DHT22;8427;52.204;7.202;2024-01-11T00:13:45;-3270.40;83.00
16627;DHT22;8427;52.204;7.202;2024-01-11T00:16:13;-3270.40;83.20
16627;DHT22;8427;52.204;7.202;2024-01-11T00:18:42;-3270.30;83.60
16627;DHT22;8427;52.204;7.202;2024-01-11T00:21:12;-3270.30;84.10
16627;DHT22;8427;52.204;7.202;2024-01-11T00:23:42;-3270.20;83.90
16627;DHT22;8427;52.204;7.202;2024-01-11T00:26:12;-3270.30;83.80
16627;DHT22;8427;52.204;7.202;2024-01-11T00:28:40;-3270.30;83.90
16627;DHT22;8427;52.204;7.202;2024-01-11T00:31:09;-3270.20;84.00
16627;DHT22;8427;52.204;7.202;2024-01-11T00:33:37;-3270.10;84.40
16627;DHT22;8427;52.204;7.202;2024-01-11T00:36:06;-3270.10;84.50
16627;DHT22;8427;52.204;7.202;2024-01-11T00:38:35;-3270.10;84.50
16627;DHT22;8427;52.204;7.202;2024-01-11T00:41:05;-3270.10;84.50
16627;DHT22;8427;52.204;7.202;2024-01-11T00:43:34;-3270.20;84.60
16627;DHT22;8427;52.204;7.202;2024-01-11T00:46:02;-3270.10;84.70
16627;DHT22;8427;52.204;7.202;2024-01-11T00:48:31;-3270.10;84.90
16627;DHT22;8427;52.204;7.202;2024-01-11T00:50:59;-3270.10;85.00
16627;DHT22;8427;52.204;7.202;2024-01-11T00:53:28;-3270.00;85.10
16627;DHT22;8427;52.204;7.202;2024-01-11T00:55:58;-3270.00;84.90
16627;DHT22;8427;52.204;7.202;2024-01-11T00:58:28;-3270.00;85.10
16627;DHT22;8427;52.204;7.202;2024-01-11T01:00:57;-3270.00;85.20
16627;DHT22;8427;52.204;7.202;2024-01-11T01:03:25;-3269.90;85.30
16627;DHT22;8427;52.204;7.202;2024-01-11T01:05:54;-3269.90;85.30
16627;DHT22;8427;52.204;7.202;2024-01-11T01:08:23;-3269.90;85.40
16627;DHT22;8427;52.204;7.202;2024-01-11T01:10:51;-3270.00;85.50
16627;DHT22;8427;52.204;7.202;2024-01-11T01:13:20;-3270.00;85.50
16627;DHT22;8427;52.204;7.202;2024-01-11T01:15:50;-3269.90;85.30
16627;DHT22;8427;52.204;7.202;2024-01-11T01:18:18;-3270.10;85.30
16627;DHT22;8427;52.204;7.202;2024-01-11T01:20:47;-3270.00;85.40
16627;DHT22;8427;52.204;7.202;2024-01-11T01:23:16;-3269.90;85.10
16627;DHT22;8427;52.204;7.202;2024-01-11T01:25:46;-3270.00;85.30
16627;DHT22;8427;52.204;7.202;2024-01-11T01:28:14;-3269.90;85.20
16627;DHT22;8427;52.204;7.202;2024-01-11T01:30:43;-3270.00;85.50
16627;DHT22;8427;52.204;7.202;2024-01-11T01:33:13;-3270.00;85.50
16627;DHT22;8427;52.204;7.202;2024-01-11T01:35:43;-3269.90;85.60
16627;DHT22;8427;52.204;7.202;2024-01-11T01:38:28;-3270.00;85.70
16627;DHT22;8427;52.204;7.202;2024-01-11T01:40:59;-3270.00;85.60
16627;DHT22;8427;52.204;7.202;2024-01-11T01:43:28;-3270.10;85.10
16627;DHT22;8427;52.204;7.202;2024-01-11T01:45:58;-3269.90;85.10
16627;DHT22;8427;52.204;7.202;2024-01-11T01:48:28;-3269.90;85.30
16627;DHT22;8427;52.204;7.202;2024-01-11T01:50:57;-3270.00;85.50
16627;DHT22;8427;52.204;7.202;2024-01-11T01:53:27;-3270.10;85.00
16627;DHT22;8427;52.204;7.202;2024-01-11T01:55:56;-3270.00;85.10
16627;DHT22;8427;52.204;7.202;2024-01-11T01:58:25;-3269.90;85.20
16627;DHT22;8427;52.204;7.202;2024-01-11T02:00:54;-3270.00;85.30
16627;DHT22;8427;52.204;7.202;2024-01-11T02:03:24;-3270.10;85.40
16627;DHT22;8427;52.204;7.202;2024-01-11T02:05:56;-3269.90;85.40
16627;DHT22;8427;52.204;7.202;2024-01-11T02:08:25;-3269.90;85.40
16627;DHT22;8427;52.204;7.202;2024-01-11T02:10:55;-3269.90;85.40
16627;DHT22;8427;52.204;7.202;2024-01-11T02:13:24;-3270.00;85.20
16627;DHT22;8427;52.204;7.202;2024-01-11T02:15:53;-3269.90;85.20
16627;DHT22;8427;52.204;7.202;2024-01-11T02:18:22;-3269.80;85.20
16627;DHT22;8427;52.204;7.202;2024-01-11T02:20:51;-3269.80;85.50
16627;DHT22;8427;52.204;7.202;2024-01-11T02:23:22;-3269.80;85.70
16627;DHT22;8427;52.204;7.202;2024-01-11T02:28:24;-3269.70;86.20
16627;DHT22;8427;52.204;7.202;2024-01-11T02:30:53;-3269.70;86.20
16627;DHT22;8427;52.204;7.202;2024-01-11T02:33:21;-3269.70;86.30
16627;DHT22;8427;52.204;7.202;2024-01-11T02:35:50;-3269.70;86.50
16627;DHT22;8427;52.204;7.202;2024-01-11T02:38:19;-3269.80;86.40
16627;DHT22;8427;52.204;7.202;2024-01-11T02:40:49;-3269.70;86.30
16627;DHT22;8427;52.204;7.202;2024-01-11T02:43:17;-3269.60;86.40
16627;DHT22;8427;52.204;7.202;2024-01-11T02:45:47;-3269.80;86.40
16627;DHT22;8427;52.204;7.202;2024-01-11T02:48:15;-3269.70;86.40
16627;DHT22;8427;52.204;7.202;2024-01-11T02:50:44;-3269.60;86.50
16627;DHT22;8427;52.204;7.202;2024-01-11T02:53:12;-3269.50;86.60
16627;DHT22;8427;52.204;7.202;2024-01-11T02:55:41;-3269.50;86.60
16627;DHT22;8427;52.204;7.202;2024-01-11T02:58:09;-3269.50;86.60
16627;DHT22;8427;52.204;7.202;2024-01-11T03:00:37;-3269.50;86.60
16627;DHT22;8427;52.204;7.202;2024-01-11T03:03:07;-3269.50;86.90
16627;DHT22;8427;52.204;7.202;2024-01-11T03:05:35;-3269.60;86.80
16627;DHT22;8427;52.204;7.202;2024-01-11T03:08:04;-3269.50;86.70
16627;DHT22;8427;52.204;7.202;2024-01-11T03:10:32;-3269.50;86.90
16627;DHT22;8427;52.204;7.202;2024-01-11T03:13:00;-3269.50;87.10
16627;DHT22;8427;52.204;7.202;2024-01-11T03:15:29;-3269.50;87.00
16627;DHT22;8427;52.204;7.202;2024-01-11T03:17:57;-3269.50;86.90
16627;DHT22;8427;52.204;7.202;2024-01-11T03:20:27;-3269.50;87.10
16627;DHT22;8427;52.204;7.202;2024-01-11T03:22:56;-3269.60;87.30
16627;DHT22;8427;52.204;7.202;2024-01-11T03:25:26;-3269.70;86.90
16627;DHT22;8427;52.204;7.202;2024-01-11T03:27:55;-3269.70;86.80
16627;DHT22;8427;52.204;7.202;2024-01-11T03:30:24;-3269.60;86.90
16627;DHT22;8427;52.204;7.202;2024-01-11T03:32:52;-3269.70;86.90
16627;DHT22;8427;52.204;7.202;2024-01-11T03:35:21;-3269.60;86.90
16627;DHT22;8427;52.204;7.202;2024-01-11T03:37:50;-3269.70;87.00
16627;DHT22;8427;52.204;7.202;2024-01-11T03:40:19;-3269.60;86.90
16627;DHT22;8427;52.204;7.202;2024-01-11T03:42:47;-3269.60;87.00
16627;DHT22;8427;52.204;7.202;2024-01-11T03:45:18;-3269.60;87.20
16627;DHT22;8427;52.204;7.202;2024-01-11T03:47:47;-3269.60;87.20
16627;DHT22;8427;52.204;7.202;2024-01-11T03:50:15;-3269.60;87.20
16627;DHT22;8427;52.204;7.202;2024-01-11T03:52:44;-3269.50;87.10
16627;DHT22;8427;52.204;7.202;2024-01-11T03:55:14;-3269.40;87.30
16627;DHT22;8427;52.204;7.202;2024-01-11T03:57:42;-3269.50;87.30
16627;DHT22;8427;52.204;7.202;2024-01-11T04:00:12;-3269.50;87.20
16627;DHT22;8427;52.204;7.202;2024-01-11T04:02:40;-3269.50;87.10
16627;DHT22;8427;52.204;7.202;2024-01-11T04:05:09;-3269.40;87.40
16627;DHT22;8427;52.204;7.202;2024-01-11T04:07:38;-3269.40;87.30
16627;DHT22;8427;52.204;7.202;2024-01-11T04:10:07;-3269.40;87.50
16627;DHT22;8427;52.204;7.202;2024-01-11T04:12:37;-3269.40;87.50
16627;DHT22;8427;52.204;7.202;2024-01-11T04:15:07;-3269.40;87.20
16627;DHT22;8427;52.204;7.202;2024-01-11T04:17:35;-3269.40;87.30
16627;DHT22;8427;52.204;7.202;2024-01-11T04:20:05;-3269.40;87.50
16627;DHT22;8427;52.204;7.202;2024-01-11T04:22:34;-3269.40;87.60
16627;DHT22;8427;52.204;7.202;2024-01-11T04:25:03;-3269.40;87.60
16627;DHT22;8427;52.204;7.202;2024-01-11T04:27:31;-3269.40;87.70
16627;DHT22;8427;52.204;7.202;2024-01-11T04:30:01;-3269.40;87.60
16627;DHT22;8427;52.204;7.202;2024-01-11T04:32:29;-3269.40;87.70
16627;DHT22;8427;52.204;7.202;2024-01-11T04:34:58;-3269.40;87.70
16627;DHT22;8427;52.204;7.202;2024-01-11T04:37:26;-3269.30;87.60
16627;DHT22;8427;52.204;7.202;2024-01-11T04:39:55;-3269.40;87.60
16627;DHT22;8427;52.204;7.202;2024-01-11T04:42:27;-3269.40;87.60
16627;DHT22;8427;52.204;7.202;2024-01-11T04:44:55;-3269.30;87.50
16627;DHT22;8427;52.204;7.202;2024-01-11T04:47:25;-3269.30;87.70
16627;DHT22;8427;52.204;7.202;2024-01-11T04:49:53;-3269.30;87.60
16627;DHT22;8427;52.204;7.202;2024-01-11T04:52:22;-3269.30;87.40
16627;DHT22;8427;52.204;7.202;2024-01-11T04:54:50;-3269.30;87.50
16627;DHT22;8427;52.204;7.202;2024-01-11T04:57:19;-3269.40;87.30
16627;DHT22;8427;52.204;7.202;2024-01-11T04:59:47;-3269.30;87.50
16627;DHT22;8427;52.204;7.202;2024-01-11T05:02:15;-3269.40;87.60
16627;DHT22;8427;52.204;7.202;2024-01-11T05:04:45;-3269.30;87.50
16627;DHT22;8427;52.204;7.202;2024-01-11T05:07:13;-3269.30;87.60
16627;DHT22;8427;52.204;7.202;2024-01-11T05:09:42;-3269.20;87.40
16627;DHT22;8427;52.204;7.202;2024-01-11T05:12:10;-3269.20;87.70
16627;DHT22;8427;52.204;7.202;2024-01-11T05:14:38;-3269.20;88.10
16627;DHT22;8427;52.204;7.202;2024-01-11T05:17:07;-3269.10;87.90
16627;DHT22;8427;52.204;7.202;2024-01-11T05:19:35;-3269.20;88.00
16627;DHT22;8427;52.204;7.202;2024-01-11T05:22:05;-3269.10;88.10
16627;DHT22;8427;52.204;7.202;2024-01-11T05:24:33;-3269.10;88.30
16627;DHT22;8427;52.204;7.202;2024-01-11T05:27:02;-3269.10;88.20
16627;DHT22;8427;52.204;7.202;2024-01-11T05:29:30;-3269.20;87.90
16627;DHT22;8427;52.204;7.202;2024-01-11T05:31:59;-3269.10;87.90
16627;DHT22;8427;52.204;7.202;2024-01-11T05:34:28;-3269.10;88.00
16627;DHT22;8427;52.204;7.202;2024-01-11T05:36:56;-3269.00;88.00
16627;DHT22;8427;52.204;7.202;2024-01-11T05:39:28;-3269.00;88.30
16627;DHT22;8427;52.204;7.202;2024-01-11T05:41:57;-3269.10;88.40
16627;DHT22;8427;52.204;7.202;2024-01-11T05:44:25;-3269.10;88.50
16627;DHT22;8427;52.204;7.202;2024-01-11T05:46:54;-3269.20;88.30
16627;DHT22;8427;52.204;7.202;2024-01-11T05:49:22;-3269.00;88.30
16627;DHT22;8427;52.204;7.202;2024-01-11T05:51:51;-3269.10;88.20
16627;DHT22;8427;52.204;7.202;2024-01-11T05:54:19;-3269.00;88.30
16627;DHT22;8427;52.204;7.202;2024-01-11T05:56:48;-3269.10;88.40
16627;DHT22;8427;52.204;7.202;2024-01-11T05:59:22;-3269.10;88.60
16627;DHT22;8427;52.204;7.202;2024-01-11T06:01:51;-3269.10;88.50
16627;DHT22;8427;52.204;7.202;2024-01-11T06:04:19;-3269.10;88.70
16627;DHT22;8427;52.204;7.202;2024-01-11T06:06:48;-3269.20;88.90
16627;DHT22;8427;52.204;7.202;2024-01-11T06:09:16;-3269.20;89.00
16627;DHT22;8427;52.204;7.202;2024-01-11T06:11:45;-3269.20;88.90
16627;DHT22;8427;52.204;7.202;2024-01-11T06:14:15;-3269.20;89.00
16627;DHT22;8427;52.204;7.202;2024-01-11T06:16:43;-3269.30;89.20
16627;DHT22;8427;52.204;7.202;2024-01-11T06:19:11;-3269.40;88.90
16627;DHT22;8427;52.204;7.202;2024-01-11T06:21:40;-3269.40;88.70
16627;DHT22;8427;52.204;7.202;2024-01-11T06:24:08;-3269.30;88.60
16627;DHT22;8427;52.204;7.202;2024-01-11T06:26:37;-3269.40;88.50
16627;DHT22;8427;52.204;7.202;2024-01-11T06:29:05;-3269.20;88.60
16627;DHT22;8427;52.204;7.202;2024-01-11T06:31:35;-3269.40;88.40
16627;DHT22;8427;52.204;7.202;2024-01-11T06:34:03;-3269.20;88.40
16627;DHT22;8427;52.204;7.202;2024-01-11T06:36:31;-3269.20;88.40
16627;DHT22;8427;52.204;7.202;2024-01-11T06:39:00;-3269.20;88.40
16627;DHT22;8427;52.204;7.202;2024-01-11T06:41:28;-3269.30;88.30
16627;DHT22;8427;52.204;7.202;2024-01-11T06:43:57;-3269.10;88.20
16627;DHT22;8427;52.204;7.202;2024-01-11T06:46:28;-3269.20;88.00
16627;DHT22;8427;52.204;7.202;2024-01-11T06:48:57;-3269.10;88.00
16627;DHT22;8427;52.204;7.202;2024-01-11T06:51:26;-3269.00;87.90
16627;DHT22;8427;52.204;7.202;2024-01-11T06:53:55;-3269.00;88.10
16627;DHT22;8427;52.204;7.202;2024-01-11T06:56:23;-3269.10;88.30
16627;DHT22;8427;52.204;7.202;2024-01-11T06:58:52;-3269.00;88.70
16627;DHT22;8427;52.204;7.202;2024-01-11T07:01:20;-3269.10;88.70
16627;DHT22;8427;52.204;7.202;2024-01-11T07:03:49;-3269.10;89.10
16627;DHT22;8427;52.204;7.202;2024-01-11T07:06:19;-3269.10;88.90
16627;DHT22;8427;52.204;7.202;2024-01-11T07:08:48;-3269.10;88.30
16627;DHT22;8427;52.204;7.202;2024-01-11T07:11:16;-3269.10;88.40
16627;DHT22;8427;52.204;7.202;2024-01-11T07:13:45;-3269.10;88.50
16627;DHT22;8427;52.204;7.202;2024-01-11T07:16:13;-3269.00;88.60
16627;DHT22;8427;52.204;7.202;2024-01-11T07:18:42;-3269.00;88.80
16627;DHT22;8427;52.204;7.202;2024-01-11T07:21:11;-3269.20;88.70
16627;DHT22;8427;52.204;7.202;2024-01-11T07:23:41;-3269.00;88.70
16627;DHT22;8427;52.204;7.202;2024-01-11T07:26:09;-3269.00;88.70
16627;DHT22;8427;52.204;7.202;2024-01-11T07:28:38;-3269.00;88.70
16627;DHT22;8427;52.204;7.202;2024-01-11T07:31:07;-3269.00;88.70
16627;DHT22;8427;52.204;7.202;2024-01-11T07:33:35;-3269.00;88.90
16627;DHT22;8427;52.204;7.202;2024-01-11T07:36:05;-3269.10;89.00
16627;DHT22;8427;52.204;7.202;2024-01-11T07:38:34;-3269.00;88.90
16627;DHT22;8427;52.204;7.202;2024-01-11T07:41:04;-3269.10;89.10
16627;DHT22;8427;52.204;7.202;2024-01-11T07:43:33;-3269.00;89.20
16627;DHT22;8427;52.204;7.202;2024-01-11T07:46:19;-3269.00;89.10
16627;DHT22;8427;52.204;7.202;2024-01-11T07:49:02;-3269.10;88.90
16627;DHT22;8427;52.204;7.202;2024-01-11T07:51:30;-3269.10;88.90
16627;DHT22;8427;52.204;7.202;2024-01-11T07:53:59;-3269.10;89.00
16627;DHT22;8427;52.204;7.202;2024-01-11T07:56:29;-3269.10;88.80
16627;DHT22;8427;52.204;7.202;2024-01-11T07:58:57;-3269.20;88.90
16627;DHT22;8427;52.204;7.202;2024-01-11T08:01:26;-3269.10;88.90
16627;DHT22;8427;52.204;7.202;2024-01-11T08:03:54;-3269.20;89.20
16627;DHT22;8427;52.204;7.202;2024-01-11T08:06:23;-3269.20;89.30
16627;DHT22;8427;52.204;7.202;2024-01-11T08:08:51;-3269.30;89.30
16627;DHT22;8427;52.204;7.202;2024-01-11T08:11:20;-3269.40;89.20
16627;DHT22;8427;52.204;7.202;2024-01-11T08:13:50;-3269.40;89.10
16627;DHT22;8427;52.204;7.202;2024-01-11T08:16:22;-3269.40;88.90
16627;DHT22;8427;52.204;7.202;2024-01-11T08:18:50;-3269.40;88.70
16627;DHT22;8427;52.204;7.202;2024-01-11T08:21:19;-3269.40;88.70
16627;DHT22;8427;52.204;7.202;2024-01-11T08:23:47;-3269.40;88.90
16627;DHT22;8427;52.204;7.202;2024-01-11T08:26:16;-3269.60;89.00
16627;DHT22;8427;52.204;7.202;2024-01-11T08:28:46;-3269.60;88.90
16627;DHT22;8427;52.204;7.202;2024-01-11T08:31:16;-3269.50;88.90
16627;DHT22;8427;52.204;7.202;2024-01-11T08:33:45;-3269.70;88.80
16627;DHT22;8427;52.204;7.202;2024-01-11T08:36:14;-3269.70;88.70
16627;DHT22;8427;52.204;7.202;2024-01-11T08:38:42;-3269.80;88.80
16627;DHT22;8427;52.204;7.202;2024-01-11T08:41:11;-3269.80;88.50
16627;DHT22;8427;52.204;7.202;2024-01-11T08:43:39;-3269.80;88.70
16627;DHT22;8427;52.204;7.202;2024-01-11T08:46:08;-3270.00;88.60
16627;DHT22;8427;52.204;7.202;2024-01-11T08:48:38;-3270.00;88.60
16627;DHT22;8427;52.204;7.202;2024-01-11T08:51:06;-3270.10;88.70
16627;DHT22;8427;52.204;7.202;2024-01-11T08:53:35;-3270.10;88.70
16627;DHT22;8427;52.204;7.202;2024-01-11T08:56:04;-3270.20;88.70
16627;DHT22;8427;52.204;7.202;2024-01-11T08:58:33;-3270.20;89.00
16627;DHT22;8427;52.204;7.202;2024-01-11T09:01:01;-3270.40;89.20
16627;DHT22;8427;52.204;7.202;2024-01-11T09:03:31;-3270.50;90.20
16627;DHT22;8427;52.204;7.202;2024-01-11T09:06:02;-3270.60;90.60
16627;DHT22;8427;52.204;7.202;2024-01-11T09:08:30;-3270.70;91.00
16627;DHT22;8427;52.204;7.202;2024-01-11T09:10:59;-3270.90;91.30
16627;DHT22;8427;52.204;7.202;2024-01-11T09:13:28;-3271.10;91.60
16627;DHT22;8427;52.204;7.202;2024-01-11T09:15:58;-3271.20;91.40
16627;DHT22;8427;52.204;7.202;2024-01-11T09:18:27;-3271.30;91.50
16627;DHT22;8427;52.204;7.202;2024-01-11T09:20:56;-3271.50;91.70
16627;DHT22;8427;52.204;7.202;2024-01-11T09:23:25;-3271.70;91.40
16627;DHT22;8427;52.204;7.202;2024-01-11T09:25:54;-3271.70;91.40
16627;DHT22;8427;52.204;7.202;2024-01-11T09:28:22;-3271.80;91.50
16627;DHT22;8427;52.204;7.202;2024-01-11T09:30:51;-3272.00;91.50
16627;DHT22;8427;52.204;7.202;2024-01-11T09:33:19;-3272.10;91.60
16627;DHT22;8427;52.204;7.202;2024-01-11T09:35:49;-3272.20;91.60
16627;DHT22;8427;52.204;7.202;2024-01-11T09:38:18;-3272.30;91.60
16627;DHT22;8427;52.204;7.202;2024-01-11T09:40:56;-3272.40;91.70
16627;DHT22;8427;52.204;7.202;2024-01-11T09:43:28;-3272.50;91.40
16627;DHT22;8427;52.204;7.202;2024-01-11T09:45:58;-3272.50;91.00
16627;DHT22;8427;52.204;7.202;2024-01-11T09:48:26;-3272.60;91.00
16627;DHT22;8427;52.204;7.202;2024-01-11T09:50:57;-3272.80;90.80
16627;DHT22;8427;52.204;7.202;2024-01-11T09:53:26;-3272.90;90.50
16627;DHT22;8427;52.204;7.202;2024-01-11T09:55:58;-3273.00;90.10
16627;DHT22;8427;52.204;7.202;2024-01-11T09:58:27;-3272.90;90.00
16627;DHT22;8427;52.204;7.202;2024-01-11T10:00:56;-3273.00;90.20
16627;DHT22;8427;52.204;7.202;2024-01-11T10:03:26;-3273.20;90.10
16627;DHT22;8427;52.204;7.202;2024-01-11T10:05:58;-3273.00;90.30
16627;DHT22;8427;52.204;7.202;2024-01-11T10:08:28;-3273.20;90.60
16627;DHT22;8427;52.204;7.202;2024-01-11T10:10:59;-3273.30;90.70
16627;DHT22;8427;52.204;7.202;2024-01-11T10:13:28;-3273.40;90.80
16627;DHT22;8427;52.204;7.202;2024-01-11T10:16:09;-3273.40;91.00
16627;DHT22;8427;52.204;7.202;2024-01-11T10:18:40;-3273.40;91.20
16627;DHT22;8427;52.204;7.202;2024-01-11T10:21:09;-3273.50;91.30
16627;DHT22;8427;52.204;7.202;2024-01-11T10:23:38;-3273.60;91.40
16627;DHT22;8427;52.204;7.202;2024-01-11T10:26:08;-3273.70;91.40
16627;DHT22;8427;52.204;7.202;2024-01-11T10:28:37;-3273.80;91.30
16627;DHT22;8427;52.204;7.202;2024-01-11T10:31:05;-3273.70;91.40
16627;DHT22;8427;52.204;7.202;2024-01-11T10:33:34;-3273.80;91.40
16627;DHT22;8427;52.204;7.202;2024-01-11T10:36:04;-3274.00;91.50
16627;DHT22;8427;52.204;7.202;2024-01-11T10:38:37;-3274.30;91.60
16627;DHT22;8427;52.204;7.202;2024-01-11T10:41:09;-3274.20;91.30
16627;DHT22;8427;52.204;7.202;2024-01-11T10:43:42;-3274.30;91.10
16627;DHT22;8427;52.204;7.202;2024-01-11T10:46:12;-3274.40;91.20
16627;DHT22;8427;52.204;7.202;2024-01-11T10:48:43;-3274.40;90.90
16627;DHT22;8427;52.204;7.202;2024-01-11T10:51:13;-3274.50;90.80
16627;DHT22;8427;52.204;7.202;2024-01-11T10:53:45;-3274.50;90.80
16627;DHT22;8427;52.204;7.202;2024-01-11T10:56:19;-3274.60;91.30
16627;DHT22;8427;52.204;7.202;2024-01-11T10:58:49;-3274.60;91.20
16627;DHT22;8427;52.204;7.202;2024-01-11T11:01:19;-3274.70;91.50
16627;DHT22;8427;52.204;7.202;2024-01-11T11:03:49;-3274.70;91.30
16627;DHT22;8427;52.204;7.202;2024-01-11T11:06:20;-3274.70;91.50
16627;DHT22;8427;52.204;7.202;2024-01-11T11:08:50;-3274.80;91.70
16627;DHT22;8427;52.204;7.202;2024-01-11T11:11:22;-3274.90;91.80
16627;DHT22;8427;52.204;7.202;2024-01-11T11:13:51;-3274.90;91.60
16627;DHT22;8427;52.204;7.202;2024-01-11T11:16:20;-3275.00;91.70
16627;DHT22;8427;52.204;7.202;2024-01-11T11:18:52;-3275.20;91.70
16627;DHT22;8427;52.204;7.202;2024-01-11T11:21:21;-3275.10;91.80
16627;DHT22;8427;52.204;7.202;2024-01-11T11:23:52;-3275.10;92.00
16627;DHT22;8427;52.204;7.202;2024-01-11T11:26:22;-3275.00;92.00
16627;DHT22;8427;52.204;7.202;2024-01-11T11:28:50;-3275.00;92.20
16627;DHT22;8427;52.204;7.202;2024-01-11T11:31:34;-3275.20;92.10
16627;DHT22;8427;52.204;7.202;2024-01-11T11:34:04;-3275.20;92.10
16627;DHT22;8427;52.204;7.202;2024-01-11T11:36:34;-3275.30;91.90
16627;DHT22;8427;52.204;7.202;2024-01-11T11:39:03;-3275.10;91.90
16627;DHT22;8427;52.204;7.202;2024-01-11T11:41:33;-3275.20;91.90
16627;DHT22;8427;52.204;7.202;2024-01-11T11:44:02;-3275.40;91.90
16627;DHT22;8427;52.204;7.202;2024-01-11T11:46:31;-3275.40;91.70
16627;DHT22;8427;52.204;7.202;2024-01-11T11:49:00;-3275.10;91.80
16627;DHT22;8427;52.204;7.202;2024-01-11T11:51:29;-3275.20;92.00
16627;DHT22;8427;52.204;7.202;2024-01-11T11:53:58;-3275.30;92.20
16627;DHT22;8427;52.204;7.202;2024-01-11T11:56:27;-3275.30;92.30
16627;DHT22;8427;52.204;7.202;2024-01-11T11:58:58;-3275.30;92.00
16627;DHT22;8427;52.204;7.202;2024-01-11T12:01:28;-3275.50;91.90
16627;DHT22;8427;52.204;7.202;2024-01-11T12:03:57;-3275.60;91.90
16627;DHT22;8427;52.204;7.202;2024-01-11T12:06:26;-3275.60;92.10
16627;DHT22;8427;52.204;7.202;2024-01-11T12:08:56;-3275.70;92.00
16627;DHT22;8427;52.204;7.202;2024-01-11T12:11:25;-3275.80;91.80
16627;DHT22;8427;52.204;7.202;2024-01-11T12:13:54;-3275.70;91.70
16627;DHT22;8427;52.204;7.202;2024-01-11T12:16:26;-3275.70;91.70
16627;DHT22;8427;52.204;7.202;2024-01-11T12:18:55;-3275.80;91.60
16627;DHT22;8427;52.204;7.202;2024-01-11T12:21:24;-3275.70;91.40
16627;DHT22;8427;52.204;7.202;2024-01-11T12:23:54;-3275.90;91.40
16627;DHT22;8427;52.204;7.202;2024-01-11T12:26:23;-3275.80;91.50
16627;DHT22;8427;52.204;7.202;2024-01-11T12:28:52;-3275.80;91.40
16627;DHT22;8427;52.204;7.202;2024-01-11T12:31:21;-3276.00;91.50
16627;DHT22;8427;52.204;7.202;2024-01-11T12:33:52;-3275.90;91.30
16627;DHT22;8427;52.204;7.202;2024-01-11T12:36:22;-3276.00;91.20
16627;DHT22;8427;52.204;7.202;2024-01-11T12:38:52;-3276.10;91.20
16627;DHT22;8427;52.204;7.202;2024-01-11T12:41:22;-3276.00;91.20
16627;DHT22;8427;52.204;7.202;2024-01-11T12:43:52;-3276.00;91.00
16627;DHT22;8427;52.204;7.202;2024-01-11T12:46:21;-3276.00;91.00
16627;DHT22;8427;52.204;7.202;2024-01-11T12:48:52;-3276.10;91.00
16627;DHT22;8427;52.204;7.202;2024-01-11T12:51:21;-3276.30;90.90
16627;DHT22;8427;52.204;7.202;2024-01-11T12:53:52;-3276.10;91.00
16627;DHT22;8427;52.204;7.202;2024-01-11T12:56:21;-3276.10;90.80
16627;DHT22;8427;52.204;7.202;2024-01-11T12:58:50;-3276.20;91.00
16627;DHT22;8427;52.204;7.202;2024-01-11T13:01:19;-3276.20;91.30
16627;DHT22;8427;52.204;7.202;2024-01-11T13:03:48;-3276.40;91.20
16627;DHT22;8427;52.204;7.202;2024-01-11T13:06:19;-3276.40;91.10
16627;DHT22;8427;52.204;7.202;2024-01-11T13:08:47;-3276.40;91.00
16627;DHT22;8427;52.204;7.202;2024-01-11T13:11:16;-3276.40;91.20
16627;DHT22;8427;52.204;7.202;2024-01-11T13:13:48;-3276.40;91.00
16627;DHT22;8427;52.204;7.202;2024-01-11T13:16:17;-3276.50;91.00
16627;DHT22;8427;52.204;7.202;2024-01-11T13:18:46;-3276.70;90.80
16627;DHT22;8427;52.204;7.202;2024-01-11T13:21:15;-3276.50;90.50
16627;DHT22;8427;52.204;7.202;2024-01-11T13:23:45;0.00;90.40
16627;DHT22;8427;52.204;7.202;2024-01-11T13:26:13;-3276.70;90.20
16627;DHT22;8427;52.204;7.202;2024-01-11T13:28:42;0.00;90.30
16627;DHT22;8427;52.204;7.202;2024-01-11T13:31:10;0.00;90.40
16627;DHT22;8427;52.204;7.202;2024-01-11T13:33:39;0.00;90.40
16627;DHT22;8427;52.204;7.202;2024-01-11T13:36:08;0.00;90.50
16627;DHT22;8427;52.204;7.202;2024-01-11T13:38:36;0.00;90.30
16627;DHT22;8427;52.204;7.202;2024-01-11T13:41:06;0.00;90.30
16627;DHT22;8427;52.204;7.202;2024-01-11T13:43:36;0.10;90.20
16627;DHT22;8427;52.204;7.202;2024-01-11T13:46:04;-3276.70;90.40
16627;DHT22;8427;52.204;7.202;2024-01-11T13:48:33;0.00;90.20
16627;DHT22;8427;52.204;7.202;2024-01-11T13:51:02;-3276.60;90.10
16627;DHT22;8427;52.204;7.202;2024-01-11T13:53:31;0.00;90.10
16627;DHT22;8427;52.204;7.202;2024-01-11T13:56:00;-3276.60;90.40
16627;DHT22;8427;52.204;7.202;2024-01-11T13:58:30;-3276.50;90.50
16627;DHT22;8427;52.204;7.202;2024-01-11T14:00:59;-3276.50;90.70
16627;DHT22;8427;52.204;7.202;2024-01-11T14:03:27;-3276.50;90.90
16627;DHT22;8427;52.204;7.202;2024-01-11T14:05:56;-3276.30;90.90
16627;DHT22;8427;52.204;7.202;2024-01-11T14:08:25;-3276.40;91.10
16627;DHT22;8427;52.204;7.202;2024-01-11T14:10:54;-3276.50;91.30
16627;DHT22;8427;52.204;7.202;2024-01-11T14:13:23;-3276.40;91.50
16627;DHT22;8427;52.204;7.202;2024-01-11T14:15:53;-3276.30;91.60
16627;DHT22;8427;52.204;7.202;2024-01-11T14:18:22;-3276.60;91.40
16627;DHT22;8427;52.204;7.202;2024-01-11T14:20:51;-3276.50;91.40
16627;DHT22;8427;52.204;7.202;2024-01-11T14:23:20;-3276.30;91.60
16627;DHT22;8427;52.204;7.202;2024-01-11T14:28:20;-3276.40;91.50
16627;DHT22;8427;52.204;7.202;2024-01-11T14:30:50;-3276.30;91.60
16627;DHT22;8427;52.204;7.202;2024-01-11T14:33:20;-3276.50;91.60
16627;DHT22;8427;52.204;7.202;2024-01-11T14:35:49;-3276.50;91.60
16627;DHT22;8427;52.204;7.202;2024-01-11T14:38:17;-3276.40;91.70
16627;DHT22;8427;52.204;7.202;2024-01-11T14:40:46;-3276.50;91.70
16627;DHT22;8427;52.204;7.202;2024-01-11T14:43:14;-3276.20;91.80
16627;DHT22;8427;52.204;7.202;2024-01-11T14:45:43;-3276.60;91.70
16627;DHT22;8427;52.204;7.202;2024-01-11T14:48:12;-3276.40;91.80
16627;DHT22;8427;52.204;7.202;2024-01-11T14:50:42;-3276.20;92.00
16627;DHT22;8427;52.204;7.202;2024-01-11T14:53:11;-3276.50;92.00
16627;DHT22;8427;52.204;7.202;2024-01-11T14:55:41;-3276.30;92.20
16627;DHT22;8427;52.204;7.202;2024-01-11T14:58:09;-3276.50;92.40
16627;DHT22;8427;52.204;7.202;2024-01-11T15:00:38;-3276.50;92.20
16627;DHT22;8427;52.204;7.202;2024-01-11T15:03:08;-3276.40;92.50
16627;DHT22;8427;52.204;7.202;2024-01-11T15:05:36;-3276.40;92.60
16627;DHT22;8427;52.204;7.202;2024-01-11T15:08:06;-3276.70;92.50
16627;DHT22;8427;52.204;7.202;2024-01-11T15:10:35;-3276.50;92.50
16627;DHT22;8427;52.204;7.202;2024-01-11T15:13:03;-3276.50;92.60
16627;DHT22;8427;52.204;7.202;2024-01-11T15:15:32;-3276.50;92.80
16627;DHT22;8427;52.204;7.202;2024-01-11T15:18:01;-3276.40;92.70
16627;DHT22;8427;52.204;7.202;2024-01-11T15:20:30;-3276.40;92.70